Copake Falls, New York
Current Conditions -  °F | °C
As of 10:54 AM on Sunday 25 Jan 2015 (Local Time) from KPSF Reporting Station
Few Clouds Few Clouds  
Wind Chill: 10°   Ceiling: Unl
Heat Index: 24°   Visibility: 9mi
Dew Point: 11°   Wind: 20mph
Humidity: 57%   Direction: 280°W
Pressure: 29.65"   Gusts: 31mph
Location:  42.12°N, 73.53°W
Report Text: KPSF 251554Z AUTO 28017G27KT 9SM FEW030 M04/M12 A2965 RMK AO2 PK WND 28031/1510 SNB01E13 SLP057 P0000 T10441117
Loading
Personal Weather Stations






























Interactive Weather Map New forecast layout! Learn more

10-Day Weather Forecast

Advertisements
Track Severe Weather on mobile